createdAt,value
2022-10-23T00:01:05.862Z,12
2022-10-23T00:03:36.161Z,12
2022-10-23T00:06:07.431Z,12
2022-10-23T00:08:37.893Z,11
2022-10-23T00:11:09.965Z,16
2022-10-23T00:13:40.937Z,12
2022-10-23T00:16:11.981Z,12
2022-10-23T00:18:43.052Z,11
2022-10-23T00:21:13.643Z,8
2022-10-23T00:23:43.973Z,11
2022-10-23T00:26:14.607Z,11
2022-10-23T00:28:45.235Z,12
2022-10-23T00:31:15.564Z,8
2022-10-23T00:33:46.555Z,8
2022-10-23T00:36:17.753Z,9
2022-10-23T00:38:48.525Z,11
2022-10-23T00:41:19.713Z,8
2022-10-23T00:43:50.833Z,8
2022-10-23T00:46:22.250Z,9
2022-10-23T00:48:52.785Z,8
2022-10-23T00:51:24.177Z,12
2022-10-23T00:54:00.915Z,11
2022-10-23T00:56:26.585Z,11
2022-10-23T00:58:57.856Z,12
2022-10-23T01:01:28.207Z,12
2022-10-23T01:03:59.217Z,8
2022-10-23T01:06:30.452Z,11
2022-10-23T01:09:01.164Z,12
2022-10-23T01:11:31.684Z,9
2022-10-23T01:14:06.747Z,8
2022-10-23T01:16:37.250Z,8
2022-10-23T01:19:08.432Z,12
2022-10-23T01:21:39.154Z,8
2022-10-23T01:24:10.007Z,12
2022-10-23T01:26:41.469Z,9
2022-10-23T01:29:13.098Z,8
2022-10-23T01:31:43.830Z,8
2022-10-23T01:34:14.681Z,8
2022-10-23T01:36:45.606Z,9
2022-10-23T01:39:17.186Z,8
2022-10-23T01:41:47.955Z,8
2022-10-23T01:44:19.153Z,8
2022-10-23T01:46:49.976Z,8
2022-10-23T01:49:21.100Z,11
2022-10-23T01:51:51.876Z,8
2022-10-23T01:54:22.589Z,10
2022-10-23T01:56:53.766Z,10
2022-10-23T01:59:24.974Z,8
2022-10-23T02:01:56.072Z,11
2022-10-23T02:04:26.997Z,11
2022-10-23T02:06:57.904Z,8
2022-10-23T02:09:29.213Z,4
2022-10-23T02:12:00.935Z,10
2022-10-23T02:14:32.031Z,9
2022-10-23T02:17:03.166Z,12
2022-10-23T02:19:35.945Z,12
2022-10-23T02:22:07.202Z,8
2022-10-23T02:24:38.601Z,9
2022-10-23T02:27:09.247Z,18
2022-10-23T02:29:40.226Z,16
2022-10-23T02:32:11.653Z,20
2022-10-23T02:34:45.200Z,19
2022-10-23T02:37:18.071Z,20
2022-10-23T02:39:49.818Z,13
2022-10-23T02:42:20.238Z,14
2022-10-23T02:44:51.407Z,18
2022-10-23T02:47:22.261Z,20
2022-10-23T02:49:53.039Z,16
2022-10-23T02:52:24.187Z,13
2022-10-23T02:54:56.322Z,20
2022-10-23T02:57:27.882Z,15
2022-10-23T02:59:58.480Z,12
2022-10-23T03:02:29.724Z,16
2022-10-23T03:04:59.549Z,16
2022-10-23T03:07:31.373Z,14
2022-10-23T03:10:02.130Z,16
2022-10-23T03:12:33.084Z,12
2022-10-23T03:15:03.522Z,13
2022-10-23T03:17:34.601Z,12
2022-10-23T03:20:05.806Z,12
2022-10-23T03:22:37.209Z,12
2022-10-23T03:25:08.060Z,16
2022-10-23T03:27:38.726Z,16
2022-10-23T03:30:09.558Z,12
2022-10-23T03:32:41.674Z,12
2022-10-23T03:35:13.009Z,11
2022-10-23T03:37:45.775Z,12
2022-10-23T03:40:16.471Z,12
2022-10-23T03:42:48.351Z,12
2022-10-23T03:45:20.296Z,12
2022-10-23T03:47:51.415Z,11
2022-10-23T03:50:22.665Z,12
2022-10-23T03:52:54.513Z,12
2022-10-23T03:55:25.821Z,11
2022-10-23T03:57:56.746Z,12
2022-10-23T04:00:27.911Z,15
2022-10-23T04:02:59.341Z,16
2022-10-23T04:05:30.174Z,12
2022-10-23T04:08:01.432Z,9
2022-10-23T04:10:32.376Z,12
2022-10-23T04:13:03.317Z,15
2022-10-23T04:15:34.505Z,16
2022-10-23T04:18:05.314Z,12
2022-10-23T04:20:36.528Z,14
2022-10-23T04:23:07.387Z,12
2022-10-23T04:25:38.309Z,16
2022-10-23T04:28:09.333Z,12
2022-10-23T04:30:40.260Z,20
2022-10-23T04:33:11.087Z,24
2022-10-23T04:35:41.865Z,19
2022-10-23T04:38:13.138Z,19
2022-10-23T04:40:43.923Z,16
2022-10-23T04:43:14.945Z,15
2022-10-23T04:45:45.800Z,13
2022-10-23T04:48:16.844Z,16
2022-10-23T04:50:48.841Z,16
2022-10-23T04:53:20.027Z,13
2022-10-23T04:55:52.014Z,14
2022-10-23T04:58:23.206Z,16
2022-10-23T05:00:54.120Z,15
2022-10-23T05:03:24.727Z,16
2022-10-23T05:05:55.759Z,15
2022-10-23T05:08:26.998Z,15
2022-10-23T05:10:57.902Z,16
2022-10-23T05:13:29.081Z,12
2022-10-23T05:15:59.796Z,15
2022-10-23T05:18:31.269Z,12
2022-10-23T05:21:03.045Z,12
2022-10-23T05:23:33.720Z,12
2022-10-23T05:26:04.000Z,21
2022-10-23T05:28:34.891Z,16
2022-10-23T05:31:06.446Z,16
2022-10-23T05:33:38.519Z,12
2022-10-23T05:36:09.271Z,20
2022-10-23T05:38:40.503Z,16
2022-10-23T05:41:11.815Z,20
2022-10-23T05:43:44.943Z,19
2022-10-23T05:46:16.813Z,20
2022-10-23T05:48:47.873Z,20
2022-10-23T05:51:18.561Z,19
2022-10-23T05:53:49.027Z,19
2022-10-23T05:56:19.991Z,20
2022-10-23T05:58:50.590Z,18
2022-10-23T06:01:21.921Z,20
2022-10-23T06:03:53.159Z,20
2022-10-23T06:06:24.117Z,20
2022-10-23T06:08:54.658Z,20
2022-10-23T06:11:24.937Z,25
2022-10-23T06:16:26.606Z,24
2022-10-23T06:18:58.066Z,20
2022-10-23T06:21:28.833Z,27
2022-10-23T06:23:59.795Z,20
2022-10-23T06:26:28.649Z,24
2022-10-23T06:29:00.726Z,21
2022-10-23T06:31:32.314Z,24
2022-10-23T06:34:04.394Z,26
2022-10-23T06:36:37.018Z,28
2022-10-23T06:39:08.316Z,28
2022-10-23T06:41:39.330Z,36
2022-10-23T06:44:12.373Z,36
2022-10-23T06:46:43.524Z,28
2022-10-23T06:49:14.744Z,28
2022-10-23T06:51:47.082Z,31
2022-10-23T06:54:18.273Z,28
2022-10-23T06:56:49.102Z,28
2022-10-23T06:59:20.392Z,24
2022-10-23T07:01:50.944Z,27
2022-10-23T07:04:21.641Z,24
2022-10-23T07:06:52.464Z,22
2022-10-23T07:09:23.524Z,25
2022-10-23T07:11:54.487Z,32
2022-10-23T07:14:26.753Z,56
2022-10-23T07:16:57.251Z,36
2022-10-23T07:19:26.168Z,64
2022-10-23T07:21:56.627Z,41
2022-10-23T07:24:28.125Z,47
2022-10-23T07:26:59.119Z,52
2022-10-23T07:29:30.018Z,61
2022-10-23T07:32:03.094Z,48
2022-10-23T07:34:34.942Z,42
2022-10-23T07:37:07.327Z,35
2022-10-23T07:39:37.873Z,64
2022-10-23T07:42:08.625Z,59
2022-10-23T07:44:39.449Z,63
2022-10-23T07:47:10.375Z,44
2022-10-23T07:49:40.925Z,50
2022-10-23T07:52:11.446Z,33
2022-10-23T07:54:42.233Z,35
2022-10-23T07:57:13.243Z,28
2022-10-23T07:59:44.448Z,32
2022-10-23T08:02:15.795Z,31
2022-10-23T08:04:46.841Z,28
2022-10-23T08:07:18.851Z,31
2022-10-23T08:09:49.546Z,28
2022-10-23T08:12:21.067Z,29
2022-10-23T08:14:51.881Z,25
2022-10-23T08:17:24.071Z,24
2022-10-23T08:19:54.085Z,28
2022-10-23T08:22:24.842Z,28
2022-10-23T08:24:54.021Z,26
2022-10-23T08:27:25.067Z,31
2022-10-23T08:29:55.916Z,25
2022-10-23T08:32:26.765Z,31
2022-10-23T08:34:58.842Z,28
2022-10-23T08:37:32.082Z,25
2022-10-23T08:40:05.182Z,28
2022-10-23T08:42:35.995Z,29
2022-10-23T08:45:05.562Z,41
2022-10-23T08:47:34.614Z,29
2022-10-23T08:50:06.768Z,31
2022-10-23T08:52:37.821Z,28
2022-10-23T08:55:09.063Z,24
2022-10-23T08:57:41.477Z,24
2022-10-23T09:00:12.012Z,16
2022-10-23T09:02:43.831Z,25
2022-10-23T09:05:14.895Z,28
2022-10-23T09:07:49.886Z,23
2022-10-23T09:10:21.231Z,20
2022-10-23T09:12:53.434Z,21
2022-10-23T09:15:26.492Z,18
2022-10-23T09:17:57.417Z,24
2022-10-23T09:20:30.025Z,20
2022-10-23T09:23:00.829Z,21
2022-10-23T09:25:31.627Z,16
2022-10-23T09:28:05.166Z,17
2022-10-23T09:30:35.359Z,16
2022-10-23T09:33:08.307Z,23
2022-10-23T09:35:39.825Z,16
2022-10-23T09:38:11.320Z,20
2022-10-23T09:40:43.543Z,16
2022-10-23T09:43:13.301Z,16
2022-10-23T09:45:44.740Z,28
2022-10-23T09:48:15.582Z,19
2022-10-23T09:50:46.662Z,16
2022-10-23T09:53:17.660Z,12
2022-10-23T09:55:47.568Z,12
2022-10-23T09:58:18.579Z,12
2022-10-23T10:00:51.126Z,16
2022-10-23T10:03:20.820Z,15
2022-10-23T10:05:51.823Z,8
2022-10-23T10:08:25.612Z,28
2022-10-23T10:10:56.708Z,12
2022-10-23T10:13:27.238Z,16
2022-10-23T10:15:58.554Z,16
2022-10-23T10:18:31.046Z,16
2022-10-23T10:21:02.351Z,20
2022-10-23T10:23:33.498Z,8
2022-10-23T10:26:05.020Z,8
2022-10-23T10:28:36.143Z,12
2022-10-23T10:31:07.032Z,12
2022-10-23T10:33:38.836Z,12
2022-10-23T10:36:10.351Z,12
2022-10-23T10:38:41.124Z,15
2022-10-23T10:41:11.837Z,16
2022-10-23T10:43:43.354Z,12
2022-10-23T10:48:46.035Z,12
2022-10-23T10:51:17.034Z,8
2022-10-23T10:53:48.434Z,12
2022-10-23T10:56:20.384Z,12
2022-10-23T10:58:50.957Z,20
2022-10-23T11:01:22.098Z,12
2022-10-23T11:03:53.372Z,12
2022-10-23T11:06:24.007Z,12
2022-10-23T11:08:57.823Z,12
2022-10-23T11:11:26.249Z,15
2022-10-23T11:13:57.018Z,12
2022-10-23T11:16:28.660Z,12
2022-10-23T11:19:01.801Z,12
2022-10-23T11:21:32.501Z,12
2022-10-23T11:24:03.134Z,12
2022-10-23T11:26:34.196Z,12
2022-10-23T11:29:05.245Z,12
2022-10-23T11:31:36.453Z,8
2022-10-23T11:34:07.407Z,8
2022-10-23T11:36:38.172Z,16
2022-10-23T11:39:09.473Z,18
2022-10-23T11:41:40.663Z,16
2022-10-23T11:44:10.180Z,16
2022-10-23T11:46:41.383Z,11
2022-10-23T11:51:43.198Z,40
2022-10-23T11:54:14.667Z,44
2022-10-23T11:56:45.493Z,24
2022-10-23T11:59:15.822Z,33
2022-10-23T12:01:45.620Z,20
2022-10-23T12:04:16.560Z,30
2022-10-23T12:06:46.881Z,9
2022-10-23T12:09:18.083Z,12
2022-10-23T12:11:48.993Z,16
2022-10-23T12:14:20.275Z,4
2022-10-23T12:16:51.218Z,8
2022-10-23T12:19:21.985Z,4
2022-10-23T12:21:53.797Z,8
2022-10-23T12:24:24.750Z,17
2022-10-23T12:26:55.591Z,9
2022-10-23T12:29:26.613Z,24
2022-10-23T12:31:58.321Z,10
2022-10-23T12:34:29.883Z,4
2022-10-23T12:37:01.099Z,5
2022-10-23T12:39:31.978Z,7
2022-10-23T12:42:04.268Z,8
2022-10-23T12:44:35.366Z,9
2022-10-23T12:47:05.913Z,8
2022-10-23T12:49:37.759Z,4
2022-10-23T12:52:07.266Z,8
2022-10-23T12:54:38.157Z,4
2022-10-23T12:57:09.073Z,4
2022-10-23T12:59:40.433Z,4
2022-10-23T13:02:11.893Z,4
2022-10-23T13:04:43.360Z,4
2022-10-23T13:07:14.362Z,7
2022-10-23T13:09:44.789Z,4
2022-10-23T13:12:16.153Z,5
2022-10-23T13:14:47.187Z,8
2022-10-23T13:17:17.695Z,4
2022-10-23T13:19:48.613Z,11
2022-10-23T13:22:20.011Z,10
2022-10-23T13:24:51.510Z,4
2022-10-23T13:27:23.216Z,4
2022-10-23T13:29:54.874Z,5
2022-10-23T13:32:26.234Z,4
2022-10-23T13:35:04.270Z,4
2022-10-23T13:37:26.944Z,4
2022-10-23T13:39:58.785Z,4
2022-10-23T13:42:30.072Z,4
2022-10-23T13:45:01.168Z,4
2022-10-23T13:47:32.168Z,4
2022-10-23T13:50:04.258Z,4
2022-10-23T13:52:36.297Z,4
2022-10-23T13:55:07.962Z,4
2022-10-23T13:57:39.498Z,0
2022-10-23T14:00:10.925Z,4
2022-10-23T14:02:43.359Z,4
2022-10-23T14:05:15.193Z,8
2022-10-23T14:07:46.898Z,11
2022-10-23T14:10:16.392Z,17
2022-10-23T14:12:47.874Z,4
2022-10-23T14:15:19.332Z,0
2022-10-23T14:17:52.450Z,4
2022-10-23T14:20:24.386Z,2
2022-10-23T14:22:53.240Z,8
2022-10-23T14:25:24.653Z,3
2022-10-23T14:30:26.541Z,4
2022-10-23T14:32:58.188Z,3
2022-10-23T14:35:29.182Z,4
2022-10-23T14:38:00.411Z,8
2022-10-23T14:40:32.125Z,4
2022-10-23T14:43:04.030Z,12
2022-10-23T14:45:35.232Z,7
2022-10-23T14:48:06.739Z,8
2022-10-23T14:50:37.970Z,5
2022-10-23T14:53:09.344Z,4
2022-10-23T14:55:40.612Z,4
2022-10-23T14:58:11.748Z,5
2022-10-23T15:00:46.336Z,8
2022-10-23T15:03:17.484Z,8
2022-10-23T15:05:48.768Z,12
2022-10-23T15:08:20.172Z,15
2022-10-23T15:10:52.379Z,16
2022-10-23T15:13:23.259Z,16
2022-10-23T15:15:55.159Z,14
2022-10-23T15:18:28.362Z,12
2022-10-23T15:21:00.787Z,11
2022-10-23T15:23:32.256Z,12
2022-10-23T15:26:03.402Z,11
2022-10-23T15:28:35.700Z,8
2022-10-23T15:31:07.254Z,11
2022-10-23T15:33:38.706Z,11
2022-10-23T15:36:10.298Z,12
2022-10-23T15:38:42.325Z,8
2022-10-23T15:41:13.740Z,12
2022-10-23T15:43:45.196Z,16
2022-10-23T15:46:16.151Z,19
2022-10-23T15:48:47.478Z,20
2022-10-23T15:51:19.129Z,24
2022-10-23T15:53:50.239Z,24
2022-10-23T15:56:21.622Z,24
2022-10-23T15:58:52.141Z,26
2022-10-23T16:01:24.351Z,26
2022-10-23T16:03:55.798Z,28
2022-10-23T16:06:26.983Z,27
2022-10-23T16:08:59.489Z,28
2022-10-23T16:11:33.568Z,28
2022-10-23T16:14:04.498Z,25
2022-10-23T16:16:36.758Z,32
2022-10-23T16:19:07.858Z,32
2022-10-23T16:21:39.207Z,32
2022-10-23T16:24:11.026Z,36
2022-10-23T16:26:42.520Z,40
2022-10-23T16:29:14.478Z,35
2022-10-23T16:31:45.795Z,28
2022-10-23T16:34:16.870Z,35
2022-10-23T16:36:50.012Z,32
2022-10-23T16:39:22.154Z,28
2022-10-23T16:41:53.365Z,31
2022-10-23T16:44:24.964Z,44
2022-10-23T16:46:56.607Z,41
2022-10-23T16:49:28.307Z,40
2022-10-23T16:52:00.358Z,37
2022-10-23T16:54:32.767Z,36
2022-10-23T16:57:04.726Z,39
2022-10-23T16:59:36.291Z,40
2022-10-23T17:02:07.850Z,36
2022-10-23T17:04:39.113Z,35
2022-10-23T17:07:10.674Z,40
2022-10-23T17:09:41.801Z,36
2022-10-23T17:12:14.306Z,35
2022-10-23T17:14:47.023Z,28
2022-10-23T17:17:18.734Z,35
2022-10-23T17:19:52.961Z,36
2022-10-23T17:22:24.930Z,36
2022-10-23T17:24:55.946Z,36
2022-10-23T17:27:29.315Z,36
2022-10-23T17:30:00.587Z,37
2022-10-23T17:32:32.350Z,40
2022-10-23T17:35:03.914Z,37
2022-10-23T17:37:35.293Z,36
2022-10-23T17:40:09.299Z,36
2022-10-23T17:42:41.290Z,36
2022-10-23T17:45:12.637Z,40
2022-10-23T17:47:43.908Z,40
2022-10-23T17:50:15.529Z,40
2022-10-23T17:52:47.705Z,40
2022-10-23T17:55:19.693Z,44
2022-10-23T17:57:50.574Z,40
2022-10-23T18:00:22.432Z,40
2022-10-23T18:02:54.998Z,41
2022-10-23T18:05:26.555Z,41
2022-10-23T18:07:58.246Z,52
2022-10-23T18:10:29.622Z,40
2022-10-23T18:13:05.823Z,36
2022-10-23T18:15:37.149Z,42
2022-10-23T18:18:08.387Z,41
2022-10-23T18:20:40.742Z,41
2022-10-23T18:23:15.245Z,45
2022-10-23T18:25:46.476Z,43
2022-10-23T18:28:17.656Z,46
2022-10-23T18:30:50.276Z,44
2022-10-23T18:33:21.093Z,40
2022-10-23T18:35:52.284Z,46
2022-10-23T18:38:23.980Z,46
2022-10-23T18:40:55.652Z,44
2022-10-23T18:43:42.419Z,48
2022-10-23T18:46:00.340Z,47
2022-10-23T18:48:31.694Z,51
2022-10-23T18:51:04.234Z,48
2022-10-23T18:53:35.334Z,48
2022-10-23T18:56:06.870Z,48
2022-10-23T18:58:39.073Z,44
2022-10-23T19:01:15.895Z,44
2022-10-23T19:03:47.481Z,48
2022-10-23T19:06:19.906Z,44
2022-10-23T19:08:51.886Z,46
2022-10-23T19:11:24.070Z,40
2022-10-23T19:13:56.292Z,45
2022-10-23T19:16:28.955Z,40
2022-10-23T19:19:00.021Z,42
2022-10-23T19:21:32.036Z,46
2022-10-23T19:24:04.971Z,44
2022-10-23T19:26:36.491Z,42
2022-10-23T19:29:09.035Z,48
2022-10-23T19:31:40.444Z,46
2022-10-23T19:34:13.369Z,46
2022-10-23T19:36:45.070Z,44
2022-10-23T19:39:16.179Z,45
2022-10-23T19:41:47.086Z,44
2022-10-23T19:44:18.435Z,49
2022-10-23T19:46:49.656Z,44
2022-10-23T19:49:21.058Z,45
2022-10-23T19:51:53.160Z,44
2022-10-23T19:54:25.528Z,44
2022-10-23T19:56:58.030Z,42
2022-10-23T19:59:29.619Z,40
2022-10-23T20:02:01.188Z,44
2022-10-23T20:04:32.180Z,44
2022-10-23T20:07:05.011Z,40
2022-10-23T20:09:36.616Z,44
2022-10-23T20:12:09.577Z,43
2022-10-23T20:14:40.556Z,38
2022-10-23T20:17:12.048Z,44
2022-10-23T20:19:44.622Z,39
2022-10-23T20:22:16.160Z,40
2022-10-23T20:24:47.173Z,40
2022-10-23T20:27:19.629Z,43
2022-10-23T20:29:50.613Z,40
2022-10-23T20:32:21.988Z,42
2022-10-23T20:34:53.897Z,36
2022-10-23T20:37:25.033Z,36
2022-10-23T20:39:56.546Z,32
2022-10-23T20:42:27.429Z,32
2022-10-23T20:44:59.350Z,32
2022-10-23T20:47:32.186Z,32
2022-10-23T20:50:04.143Z,35
2022-10-23T20:52:33.854Z,35
2022-10-23T20:55:05.251Z,32
2022-10-23T20:57:36.790Z,34
2022-10-23T21:00:10.170Z,35
2022-10-23T21:02:45.813Z,32
2022-10-23T21:05:15.213Z,28
2022-10-23T21:07:47.223Z,36
2022-10-23T21:10:18.075Z,34
2022-10-23T21:12:48.710Z,32
2022-10-23T21:15:20.367Z,35
2022-10-23T21:17:52.538Z,35
2022-10-23T21:20:23.905Z,40
2022-10-23T21:22:55.209Z,36
2022-10-23T21:25:28.590Z,33
2022-10-23T21:28:00.269Z,36
2022-10-23T21:30:36.760Z,35
2022-10-23T21:33:09.295Z,32
2022-10-23T21:35:47.346Z,33
2022-10-23T21:38:13.946Z,33
2022-10-23T21:40:45.357Z,32
2022-10-23T21:43:16.606Z,35
2022-10-23T21:45:46.571Z,32
2022-10-23T21:48:18.107Z,33
2022-10-23T21:53:22.138Z,32
2022-10-23T21:55:53.796Z,31
2022-10-23T21:58:24.881Z,34
2022-10-23T22:00:59.623Z,29
2022-10-23T22:03:31.561Z,32
2022-10-23T22:06:03.542Z,32
2022-10-23T22:08:36.780Z,32
2022-10-23T22:11:06.694Z,32
2022-10-23T22:13:37.498Z,29
2022-10-23T22:16:08.289Z,28
2022-10-23T22:18:39.442Z,32
2022-10-23T22:21:10.461Z,28
2022-10-23T22:23:41.121Z,30
2022-10-23T22:26:11.794Z,32
2022-10-23T22:28:43.324Z,32
2022-10-23T22:31:15.005Z,32
2022-10-23T22:33:45.683Z,28
2022-10-23T22:36:16.108Z,33
2022-10-23T22:38:46.939Z,36
2022-10-23T22:41:17.858Z,31
2022-10-23T22:43:48.983Z,28
2022-10-23T22:46:19.760Z,32
2022-10-23T22:48:50.396Z,33
2022-10-23T22:51:22.030Z,34
2022-10-23T22:53:53.100Z,32
2022-10-23T22:56:25.164Z,28
2022-10-23T22:58:56.342Z,29
2022-10-23T23:01:31.090Z,32
2022-10-23T23:04:08.563Z,32
2022-10-23T23:06:32.978Z,29
2022-10-23T23:09:04.410Z,28
2022-10-23T23:11:40.795Z,28
2022-10-23T23:16:36.274Z,32
2022-10-23T23:19:07.760Z,36
2022-10-23T23:21:38.514Z,28
2022-10-23T23:24:08.948Z,36
2022-10-23T23:26:39.902Z,29
2022-10-23T23:29:11.744Z,28
2022-10-23T23:31:43.170Z,28
2022-10-23T23:34:14.254Z,31
2022-10-23T23:36:46.529Z,35
2022-10-23T23:39:17.680Z,32
2022-10-23T23:41:47.993Z,32
2022-10-23T23:44:19.153Z,28
2022-10-23T23:46:50.480Z,32
2022-10-23T23:49:21.139Z,32
2022-10-23T23:51:51.744Z,32
2022-10-23T23:54:22.702Z,35
2022-10-23T23:56:53.686Z,36
2022-10-23T23:59:25.885Z,36
